Air Quality Table

TIMESTAMP NO2 SO2 O3 PM10 PM2.5 CO TEMP HUM WS WD NO
2021-06-18 13:00 0.39 ug/m3 0.19 ug/m3 87.45 ug/m3 21.6 ug/m3 15.1 ug/m3 0.12 mg/m3 22.84 C 78.5 % 5.21 m/s 215.35 Deg 0.03 ug/m3
2021-06-18 12:00 1.34 ug/m3 0.4 ug/m3 95.14 ug/m3 21.05 ug/m3 13.93 ug/m3 0.13 mg/m3 23.7 C 72.73 % 4.6 m/s 204.56 Deg 0.16 ug/m3
2021-06-18 11:00 1.37 ug/m3 0.49 ug/m3 101.68 ug/m3 15.98 ug/m3 12.9 ug/m3 0.13 mg/m3 24.32 C 70.4 % 1.84 m/s 226.61 Deg 0.11 ug/m3
2021-06-18 10:00 1.03 ug/m3 0.33 ug/m3 97.57 ug/m3 16.05 ug/m3 12.05 ug/m3 0.13 mg/m3 23.59 C 72.49 % 2.51 m/s 12.77 Deg 0.09 ug/m3
2021-06-18 09:00 1.45 ug/m3 0.37 ug/m3 96.35 ug/m3 20.93 ug/m3 12.7 ug/m3 0.13 mg/m3 23.57 C 70.95 % 2.06 m/s 164.63 Deg 0.15 ug/m3
2021-06-18 08:00 3.65 ug/m3 0.39 ug/m3 91.91 ug/m3 20.6 ug/m3 10.45 ug/m3 0.14 mg/m3 23.09 C 73.31 % 1.25 m/s 156.2 Deg 0.47 ug/m3
2021-06-18 07:00 4.05 ug/m3 0.24 ug/m3 87.31 ug/m3 17.15 ug/m3 12 ug/m3 0.14 mg/m3 21.64 C 80.46 % 1.6 m/s 109.91 Deg 0.4 ug/m3
2021-06-18 06:00 1.33 ug/m3 0.05 ug/m3 92.05 ug/m3 17.63 ug/m3 13.93 ug/m3 0.13 mg/m3 20.83 C 83.82 % 0.63 m/s 85.59 Deg 0.06 ug/m3
2021-06-18 05:00 2.01 ug/m3 0.07 ug/m3 87.89 ug/m3 17.88 ug/m3 11.6 ug/m3 0.13 mg/m3 20.71 C 83.1 % 1.22 m/s 110.05 Deg 0.02 ug/m3
2021-06-18 04:00 2.4 ug/m3 0.15 ug/m3 88.73 ug/m3 22.15 ug/m3 10.48 ug/m3 0.14 mg/m3 20.88 C 81.01 % 0.67 m/s 85.34 Deg 0.02 ug/m3
2021-06-18 03:00 2.19 ug/m3 0.06 ug/m3 89.15 ug/m3 16.78 ug/m3 8.53 ug/m3 0.13 mg/m3 20.91 C 80.65 % 1.03 m/s 283.78 Deg 0.02 ug/m3
2021-06-18 02:00 1.6 ug/m3 0.07 ug/m3 86.73 ug/m3 20.05 ug/m3 13.45 ug/m3 0.12 mg/m3 21.07 C 80.21 % 1.87 m/s 151.02 Deg 0.01 ug/m3
2021-06-18 01:00 2 ug/m3 0.09 ug/m3 86.72 ug/m3 14 ug/m3 12.6 ug/m3 0.14 mg/m3 21.22 C 79.14 % 1.34 m/s 164.13 Deg 0.01 ug/m3
2021-06-18 00:00 1.64 ug/m3 0.07 ug/m3 90.26 ug/m3 13.48 ug/m3 17.78 ug/m3 0.14 mg/m3 21.27 C 79.27 % 3.2 m/s 111.93 Deg 0.01 ug/m3
2021-06-17 23:00 1.02 ug/m3 0.07 ug/m3 92.61 ug/m3 13.08 ug/m3 11.7 ug/m3 0.14 mg/m3 21.27 C 80.44 % 3.11 m/s 157.42 Deg 0.01 ug/m3
2021-06-17 22:00 0.82 ug/m3 0.12 ug/m3 92.61 ug/m3 11.43 ug/m3 8.8 ug/m3 0.14 mg/m3 21.15 C 80.65 % 1.48 m/s 141.14 Deg 0.01 ug/m3
2021-06-17 21:00 0.72 ug/m3 0.07 ug/m3 89.52 ug/m3 10.77 ug/m3 11.97 ug/m3 0.13 mg/m3 21.2 C 80.12 % 2.46 m/s 192.25 Deg 0.01 ug/m3
2021-06-17 20:00 0.78 ug/m3 0.11 ug/m3 95.88 ug/m3 13.5 ug/m3 12.27 ug/m3 0.13 mg/m3 21.47 C 78.25 % 2.8 m/s 200.94 Deg 0.01 ug/m3
2021-06-17 19:00 0.9 ug/m3 0.17 ug/m3 99.07 ug/m3 6.8 ug/m3 11 ug/m3 0.13 mg/m3 21.96 C 75.44 % 3.64 m/s 186.79 Deg 0.01 ug/m3
2021-06-17 18:00 1.14 ug/m3 0.29 ug/m3 99.9 ug/m3 11.98 ug/m3 9.68 ug/m3 0.13 mg/m3 22.51 C 72.83 % 5 m/s 205.59 Deg 0.08 ug/m3
2021-06-17 17:00 0.58 ug/m3 0.3 ug/m3 98.58 ug/m3 18.13 ug/m3 12.15 ug/m3 0.13 mg/m3 22.89 C 70.73 % 5.33 m/s 208.94 Deg 0.03 ug/m3
2021-06-17 16:00 0.54 ug/m3 0.31 ug/m3 99.23 ug/m3 13.53 ug/m3 14.23 ug/m3 0.13 mg/m3 22.93 C 71.61 % 5.62 m/s 213.04 Deg 0.02 ug/m3

It is to be noted that the data is provisional and subject to quality assurance procedures. For validated data kindly refer your request to contact.air@era.org.mt